Var ligger Fonte da Barreira da Bica i Portugal?

 

Fonte da Barreira da Bica ligger i regionen Santarem i Portugal!

Sök efter namnet på en stad:

Fonte Cesia, Fontäne, Fonte Monumental, Fontanetto Po, Fontaine d'Arlette

Här finner du plats för Fonte da Barreira da Bica på en karta.
För att se hur det för närvarande ser ut, nedan är några bilder av området med online webbkameror.
Du kan också hitta avståndet till de viktigaste städerna i regionen och till städer i övriga Portugal.

Alla platser i världen som heter .


Var ligger Fonte da Barreira da Bica på kartan?




Webcams nära Fonte da Barreira da Bica

Vasco Carão › South: Garrocheira, Benavente − Airport.


Vasco Carão › South: Garrocheira, Benavente − Airport - Dagtid
Aktuell
Vasco Carão › South: Garrocheira, Benavente − Airport - Aktuell

Benavente › North-East: AIrport, METAR: BENAV 180005Z 36004KT 17/14 Q1015.


Benavente › North-East: AIrport, METAR: BENAV 180005Z 36004KT 17/14 Q1015 - Dagtid
Aktuell
Benavente › North-East: AIrport, METAR: BENAV 180005Z 36004KT 17/14 Q1015 - Aktuell

Abrantes › North-West: › North-West: Zona Alta (Torre).


Abrantes › North-West: › North-West: Zona Alta (Torre) - Dagtid
Aktuell
Abrantes › North-West: › North-West: Zona Alta (Torre) - Aktuell

Webcams provided by webcams.travel


Avstånd

Var är Fonte da Barreira da Bica i förhållande till andra platser?

Topp 10 städer i Santarem och avstånd från Fonte da Barreira da Bica.

Stad#Befolkningkmmiles
Santarém129385106
Entroncamento2198872314
Tomar3191683924
Torres Novas4145262113
Samora Correia5141544528
Abrantes6136464025
Ourém7127293924
Rio Maior8120642918
Fátima9117983522
Almeirim1011556106

Topp 10 städer i Portugal och avstånd från Fonte da Barreira da Bica.

Stad # Befolkningkmmiles
Lisbon15177987949
Porto2249630206128
Amadora31788568050
Braga4121393251156
Setúbal51171098955
Coimbra610658010364
Queluz71033988251
Funchal8980411051653
Vila Nova de Gaia970810204127
Loures10662307144



Info

Statistik och Geografi

Portugal består av 15299 städer i 20 regioner.

Regionen Santarem har 1174 städer.

Var ligger Fonte da Barreira da Bica i Portugal?